createdAt,value
2018-02-25T00:00:15.661Z,62.4
2018-02-25T00:01:15.380Z,62.21
2018-02-25T00:02:15.589Z,62.18
2018-02-25T00:03:15.553Z,62.31
2018-02-25T00:04:15.270Z,61.93
2018-02-25T00:05:15.485Z,62.02
2018-02-25T00:06:15.442Z,62.12
2018-02-25T00:07:15.409Z,61.84
2018-02-25T00:08:15.124Z,62.02
2018-02-25T00:09:15.362Z,61.65
2018-02-25T00:10:15.303Z,61.99
2018-02-25T00:11:15.267Z,61.61
2018-02-25T00:12:15.234Z,62.28
2018-02-25T00:13:15.201Z,62.18
2018-02-25T00:14:15.167Z,61.99
2018-02-25T00:15:15.122Z,62.12
2018-02-25T00:16:15.087Z,61.99
2018-02-25T00:17:15.051Z,61.99
2018-02-25T00:18:15.012Z,62.09
2018-02-25T00:19:14.981Z,61.9
2018-02-25T00:20:14.944Z,61.9
2018-02-25T00:21:14.907Z,61.8
2018-02-25T00:22:14.622Z,62.09
2018-02-25T00:23:14.836Z,62.09
2018-02-25T00:24:14.804Z,61.9
2018-02-25T00:25:14.765Z,62.18
2018-02-25T00:26:14.729Z,61.71
2018-02-25T00:27:14.694Z,62.28
2018-02-25T00:28:14.658Z,62.18
2018-02-25T00:29:14.621Z,61.71
2018-02-25T00:30:14.583Z,61.61
2018-02-25T00:31:14.302Z,62.09
2018-02-25T00:32:14.512Z,62.18
2018-02-25T00:33:14.477Z,62.18
2018-02-25T00:34:14.442Z,62.18
2018-02-25T00:35:14.404Z,62.18
2018-02-25T00:36:14.366Z,61.99
2018-02-25T00:37:14.333Z,62.09
2018-02-25T00:38:14.293Z,62.09
2018-02-25T00:39:14.260Z,62.09
2018-02-25T00:40:14.223Z,61.99
2018-02-25T00:41:14.191Z,62.09
2018-02-25T00:42:14.153Z,61.9
2018-02-25T00:43:14.116Z,62.47
2018-02-25T00:44:14.083Z,61.9
2018-02-25T00:45:14.045Z,62.37
2018-02-25T00:46:14.010Z,62.37
2018-02-25T00:47:14.104Z,62.47
2018-02-25T00:48:13.933Z,62.18
2018-02-25T00:49:13.900Z,62.37
2018-02-25T00:50:13.866Z,62.47
2018-02-25T00:51:13.828Z,62.18
2018-02-25T00:52:13.792Z,62.37
2018-02-25T00:53:13.759Z,62.28
2018-02-25T00:54:13.720Z,62.75
2018-02-25T00:55:13.683Z,62.56
2018-02-25T00:56:13.651Z,62.84
2018-02-25T00:57:13.610Z,63.13
2018-02-25T00:58:13.574Z,62.56
2018-02-25T00:59:13.538Z,63.13
2018-02-25T01:00:13.506Z,63.03
2018-02-25T01:01:13.216Z,63.03
2018-02-25T01:02:13.428Z,63.03
2018-02-25T01:03:13.399Z,63.03
2018-02-25T01:04:13.360Z,63.22
2018-02-25T01:05:13.327Z,63.03
2018-02-25T01:06:13.293Z,62.94
2018-02-25T01:07:13.252Z,63.13
2018-02-25T01:08:13.215Z,63.03
2018-02-25T01:09:13.185Z,63.22
2018-02-25T01:10:13.143Z,63.6
2018-02-25T01:11:13.107Z,63.32
2018-02-25T01:12:13.071Z,63.13
2018-02-25T01:13:13.045Z,63.32
2018-02-25T01:14:13.000Z,63.51
2018-02-25T01:15:12.961Z,63.7
2018-02-25T01:16:12.928Z,63.7
2018-02-25T01:17:12.891Z,63.03
2018-02-25T01:18:12.859Z,63.41
2018-02-25T01:19:12.816Z,63.32
2018-02-25T01:20:12.780Z,63.41
2018-02-25T01:21:12.742Z,63.89
2018-02-25T01:22:12.705Z,63.79
2018-02-25T01:23:12.672Z,63.7
2018-02-25T01:24:12.632Z,63.6
2018-02-25T01:25:12.596Z,63.6
2018-02-25T01:26:12.564Z,63.6
2018-02-25T01:27:12.535Z,63.7
2018-02-25T01:28:12.491Z,64.26
2018-02-25T01:29:12.456Z,64.07
2018-02-25T01:30:12.419Z,64.07
2018-02-25T01:31:12.382Z,64.54
2018-02-25T01:32:12.100Z,64.26
2018-02-25T01:33:12.310Z,64.17
2018-02-25T01:34:12.277Z,64.07
2018-02-25T01:35:12.236Z,64.26
2018-02-25T01:36:12.201Z,64.45
2018-02-25T01:37:12.161Z,64.54
2018-02-25T01:38:12.126Z,64.54
2018-02-25T01:39:12.088Z,64.45
2018-02-25T01:40:12.053Z,64.54
2018-02-25T01:41:12.018Z,64.54
2018-02-25T01:42:11.979Z,64.92
2018-02-25T01:43:11.948Z,64.73
2018-02-25T01:44:11.908Z,64.73
2018-02-25T01:45:11.871Z,64.73
2018-02-25T01:46:11.586Z,64.64
2018-02-25T01:47:11.802Z,64.54
2018-02-25T01:48:11.764Z,64.64
2018-02-25T01:49:11.727Z,64.92
2018-02-25T01:50:11.688Z,65.2
2018-02-25T01:51:11.652Z,64.92
2018-02-25T01:52:11.616Z,64.92
2018-02-25T01:53:11.577Z,65.11
2018-02-25T01:54:11.550Z,65.39
2018-02-25T01:55:11.505Z,65.2
2018-02-25T01:56:11.467Z,65.58
2018-02-25T01:57:11.434Z,65.58
2018-02-25T01:58:11.405Z,65.39
2018-02-25T01:59:11.359Z,65.48
2018-02-25T02:00:11.326Z,65.77
2018-02-25T02:01:11.039Z,65.58
2018-02-25T02:02:11.251Z,65.67
2018-02-25T02:03:11.224Z,65.39
2018-02-25T02:04:11.180Z,65.67
2018-02-25T02:05:11.144Z,65.67
2018-02-25T02:06:10.857Z,65.48
2018-02-25T02:07:11.072Z,66.05
2018-02-25T02:08:11.032Z,65.86
2018-02-25T02:09:10.998Z,65.96
2018-02-25T02:10:10.962Z,66.15
2018-02-25T02:11:10.924Z,65.86
2018-02-25T02:12:10.888Z,66.15
2018-02-25T02:13:10.849Z,65.96
2018-02-25T02:14:10.821Z,65.67
2018-02-25T02:15:10.775Z,65.86
2018-02-25T02:16:10.744Z,65.86
2018-02-25T02:17:10.708Z,66.34
2018-02-25T02:18:10.668Z,66.24
2018-02-25T02:19:10.630Z,66.34
2018-02-25T02:20:10.594Z,66.15
2018-02-25T02:21:10.558Z,65.86
2018-02-25T02:22:10.522Z,66.05
2018-02-25T02:23:10.486Z,65.96
2018-02-25T02:24:10.454Z,66.05
2018-02-25T02:25:10.166Z,65.96
2018-02-25T02:26:10.376Z,66.52
2018-02-25T02:27:10.337Z,66.34
2018-02-25T02:28:10.300Z,66.24
2018-02-25T02:29:10.266Z,66.05
2018-02-25T02:30:10.230Z,66.24
2018-02-25T02:31:10.201Z,66.62
2018-02-25T02:32:10.160Z,66.62
2018-02-25T02:33:10.124Z,66.62
2018-02-25T02:34:10.083Z,66.43
2018-02-25T02:35:10.046Z,66.52
2018-02-25T02:36:09.761Z,66.62
2018-02-25T02:37:09.971Z,66.4
2018-02-25T02:38:09.937Z,66.52
2018-02-25T02:39:09.908Z,66.71
2018-02-25T02:40:09.860Z,66.58
2018-02-25T02:41:09.578Z,66.21
2018-02-25T02:42:09.788Z,66.4
2018-02-25T02:43:09.752Z,66.21
2018-02-25T02:44:09.718Z,66.58
2018-02-25T02:45:09.684Z,66.77
2018-02-25T02:46:09.643Z,66.87
2018-02-25T02:47:09.608Z,66.87
2018-02-25T02:48:09.570Z,67.25
2018-02-25T02:49:09.533Z,67.06
2018-02-25T02:50:09.499Z,67.06
2018-02-25T02:51:09.460Z,66.87
2018-02-25T02:52:09.426Z,66.96
2018-02-25T02:53:09.389Z,67.15
2018-02-25T02:54:09.349Z,67.06
2018-02-25T02:55:09.313Z,67.34
2018-02-25T02:56:09.279Z,67.15
2018-02-25T02:57:09.239Z,67.15
2018-02-25T02:58:09.217Z,67.15
2018-02-25T02:59:09.164Z,67.15
2018-02-25T03:00:09.131Z,67.15
2018-02-25T03:01:09.089Z,67.25
2018-02-25T03:02:09.050Z,66.77
2018-02-25T03:03:09.013Z,66.77
2018-02-25T03:04:08.995Z,67.06
2018-02-25T03:05:08.944Z,67.06
2018-02-25T03:06:08.907Z,66.77
2018-02-25T03:07:08.868Z,67.06
2018-02-25T03:08:08.832Z,66.87
2018-02-25T03:09:08.791Z,66.87
2018-02-25T03:10:08.759Z,67.25
2018-02-25T03:11:08.725Z,66.87
2018-02-25T03:12:08.686Z,67.06
2018-02-25T03:13:08.649Z,67.06
2018-02-25T03:14:08.616Z,66.87
2018-02-25T03:15:08.574Z,66.87
2018-02-25T03:16:08.539Z,67.34
2018-02-25T03:17:08.253Z,67.15
2018-02-25T03:18:08.465Z,67.25
2018-02-25T03:19:08.424Z,66.96
2018-02-25T03:20:08.142Z,66.96
2018-02-25T03:21:08.354Z,67.25
2018-02-25T03:22:08.369Z,67.25
2018-02-25T03:23:08.277Z,67.25
2018-02-25T03:24:08.243Z,67.06
2018-02-25T03:25:08.206Z,67.15
2018-02-25T03:26:08.181Z,67.25
2018-02-25T03:27:08.133Z,67.15
2018-02-25T03:28:08.098Z,67.06
2018-02-25T03:29:08.059Z,67.06
2018-02-25T03:30:08.029Z,67.15
2018-02-25T03:31:07.987Z,66.96
2018-02-25T03:32:07.697Z,66.96
2018-02-25T03:33:07.912Z,67.15
2018-02-25T03:34:07.870Z,67.15
2018-02-25T03:35:07.838Z,66.96
2018-02-25T03:36:07.798Z,66.96
2018-02-25T03:37:07.758Z,66.96
2018-02-25T03:38:07.723Z,67.15
2018-02-25T03:39:07.691Z,67.25
2018-02-25T03:40:07.651Z,67.15
2018-02-25T03:41:07.613Z,67.25
2018-02-25T03:42:07.575Z,66.96
2018-02-25T03:43:07.538Z,67.06
2018-02-25T03:44:07.502Z,67.34
2018-02-25T03:45:07.465Z,67.43
2018-02-25T03:46:07.433Z,67.06
2018-02-25T03:47:07.389Z,67.53
2018-02-25T03:48:07.355Z,67.43
2018-02-25T03:49:07.319Z,67.15
2018-02-25T03:50:07.280Z,67.25
2018-02-25T03:51:07.245Z,67.43
2018-02-25T03:52:07.205Z,67.43
2018-02-25T03:53:07.171Z,67.06
2018-02-25T03:54:07.133Z,67.43
2018-02-25T03:55:07.098Z,67.43
2018-02-25T03:56:07.060Z,67.25
2018-02-25T03:57:07.022Z,67.25
2018-02-25T03:58:06.988Z,67.43
2018-02-25T03:59:06.699Z,67.06
2018-02-25T04:00:06.914Z,67.34
2018-02-25T04:01:06.874Z,67.62
2018-02-25T04:02:06.836Z,67.72
2018-02-25T04:03:06.550Z,68
2018-02-25T04:04:06.760Z,67.72
2018-02-25T04:05:06.743Z,67.72
2018-02-25T04:06:06.469Z,67.62
2018-02-25T04:07:06.428Z,67.62
2018-02-25T04:08:06.637Z,67.62
2018-02-25T04:09:06.624Z,67.43
2018-02-25T04:10:06.545Z,67.25
2018-02-25T04:11:06.508Z,67.81
2018-02-25T04:12:06.477Z,68.1
2018-02-25T04:13:06.423Z,68.19
2018-02-25T04:14:06.410Z,68.29
2018-02-25T04:15:06.384Z,68
2018-02-25T04:16:06.373Z,68.19
2018-02-25T04:17:06.067Z,68.1
2018-02-25T04:18:06.253Z,68
2018-02-25T04:19:06.204Z,68.19
2018-02-25T04:20:06.166Z,68.29
2018-02-25T04:21:06.159Z,68.29
2018-02-25T04:22:05.841Z,68.19
2018-02-25T04:23:05.865Z,68.1
2018-02-25T04:24:05.769Z,68.19
2018-02-25T04:25:06.026Z,68.19
2018-02-25T04:26:05.939Z,68.38
2018-02-25T04:27:05.907Z,68.57
2018-02-25T04:28:05.871Z,68.57
2018-02-25T04:29:05.833Z,68.38
2018-02-25T04:30:05.545Z,68.47
2018-02-25T04:31:05.757Z,68.47
2018-02-25T04:32:05.718Z,68.47
2018-02-25T04:33:05.683Z,68.38
2018-02-25T04:34:05.654Z,68.47
2018-02-25T04:35:05.607Z,69.13
2018-02-25T04:36:05.569Z,69.13
2018-02-25T04:37:05.534Z,69.13
2018-02-25T04:38:05.493Z,68.66
2018-02-25T04:39:05.509Z,68.66
2018-02-25T04:40:05.424Z,68.85
2018-02-25T04:41:05.389Z,68.76
2018-02-25T04:42:05.345Z,68.76
2018-02-25T04:43:05.310Z,68.95
2018-02-25T04:44:05.271Z,68.95
2018-02-25T04:45:05.238Z,69.04
2018-02-25T04:46:05.199Z,69.32
2018-02-25T04:47:05.161Z,69.13
2018-02-25T04:48:05.476Z,69.42
2018-02-25T04:49:05.086Z,69.13
2018-02-25T04:50:04.800Z,69.32
2018-02-25T04:51:04.761Z,68.95
2018-02-25T04:52:04.977Z,69.04
2018-02-25T04:53:04.936Z,69.42
2018-02-25T04:54:04.900Z,69.42
2018-02-25T04:55:04.861Z,69.6
2018-02-25T04:56:04.849Z,69.79
2018-02-25T04:57:04.788Z,69.32
2018-02-25T04:58:04.747Z,69.51
2018-02-25T04:59:04.711Z,69.6
2018-02-25T05:00:04.676Z,69.6
2018-02-25T05:01:04.700Z,69.32
2018-02-25T05:02:04.600Z,69.6
2018-02-25T05:03:04.562Z,69.79
2018-02-25T05:04:04.526Z,69.51
2018-02-25T05:05:04.488Z,69.79
2018-02-25T05:06:04.447Z,69.98
2018-02-25T05:07:04.169Z,69.98
2018-02-25T05:08:04.375Z,70.07
2018-02-25T05:09:04.338Z,69.79
2018-02-25T05:10:04.304Z,69.89
2018-02-25T05:11:04.266Z,70.07
2018-02-25T05:12:04.228Z,69.98
2018-02-25T05:13:04.433Z,70.26
2018-02-25T05:14:03.902Z,70.17
2018-02-25T05:15:04.113Z,70.26
2018-02-25T05:16:04.904Z,70.17
2018-02-25T05:17:04.039Z,70.07
2018-02-25T05:18:03.999Z,70.07
2018-02-25T05:19:03.961Z,70.45
2018-02-25T05:20:03.929Z,70.26
2018-02-25T05:21:03.640Z,69.89
2018-02-25T05:22:03.849Z,70.26
2018-02-25T05:23:03.813Z,69.89
2018-02-25T05:24:03.775Z,70.07
2018-02-25T05:25:03.733Z,70.07
2018-02-25T05:26:03.452Z,69.98
2018-02-25T05:27:03.416Z,70.07
2018-02-25T05:28:03.625Z,69.79
2018-02-25T05:29:03.597Z,70.07
2018-02-25T05:30:03.300Z,70.26
2018-02-25T05:31:03.262Z,70.45
2018-02-25T05:32:03.224Z,70.45
2018-02-25T05:33:03.437Z,70.54
2018-02-25T05:34:03.397Z,70.36
2018-02-25T05:35:03.365Z,70.45
2018-02-25T05:36:03.326Z,70.26
2018-02-25T05:37:03.287Z,70.17
2018-02-25T05:38:03.245Z,70.54
2018-02-25T05:39:03.210Z,70.64
2018-02-25T05:40:03.183Z,70.83
2018-02-25T05:41:03.134Z,70.92
2018-02-25T05:42:02.849Z,70.61
2018-02-25T05:43:03.062Z,70.73
2018-02-25T05:44:02.774Z,71.02
2018-02-25T05:45:02.987Z,71.3
2018-02-25T05:46:02.947Z,71.11
2018-02-25T05:47:02.910Z,71.11
2018-02-25T05:48:02.623Z,71.11
2018-02-25T05:49:02.831Z,71.11
2018-02-25T05:50:02.797Z,71.21
2018-02-25T05:51:02.758Z,71.26
2018-02-25T05:52:02.735Z,71.26
2018-02-25T05:53:02.688Z,71.26
2018-02-25T05:54:02.401Z,71.26
2018-02-25T05:55:02.612Z,71.17
2018-02-25T05:56:02.323Z,70.89
2018-02-25T05:57:02.535Z,71.17
2018-02-25T05:58:02.496Z,71.08
2018-02-25T05:59:02.459Z,71.36
2018-02-25T06:00:02.424Z,71.83
2018-02-25T06:01:02.387Z,71.73
2018-02-25T06:02:02.344Z,71.73
2018-02-25T06:03:02.309Z,72.02
2018-02-25T06:04:02.270Z,71.26
2018-02-25T06:05:02.230Z,71.36
2018-02-25T06:06:02.193Z,71.83
2018-02-25T06:07:02.162Z,71.36
2018-02-25T06:08:02.120Z,71.92
2018-02-25T06:09:02.079Z,71.83
2018-02-25T06:10:02.042Z,71.83
2018-02-25T06:11:02.011Z,71.64
2018-02-25T06:12:01.967Z,71.92
2018-02-25T06:13:01.930Z,71.55
2018-02-25T06:14:01.891Z,72.3
2018-02-25T06:15:01.855Z,72.21
2018-02-25T06:16:01.816Z,72.3
2018-02-25T06:17:01.782Z,72.21
2018-02-25T06:18:01.490Z,72.21
2018-02-25T06:19:01.452Z,71.92
2018-02-25T06:20:01.663Z,72.11
2018-02-25T06:21:01.378Z,71.83
2018-02-25T06:22:01.338Z,71.92
2018-02-25T06:23:01.553Z,72.21
2018-02-25T06:24:01.519Z,72.58
2018-02-25T06:25:01.228Z,72.4
2018-02-25T06:26:01.436Z,72.4
2018-02-25T06:27:01.407Z,72.3
2018-02-25T06:28:01.362Z,72.11
2018-02-25T06:29:01.395Z,72.02
2018-02-25T06:30:01.286Z,72.49
2018-02-25T06:31:01.245Z,72.49
2018-02-25T06:32:01.214Z,72.49
2018-02-25T06:33:00.922Z,72.3
2018-02-25T06:34:00.885Z,72.68
2018-02-25T06:35:01.098Z,72.87
2018-02-25T06:36:01.059Z,72.3
2018-02-25T06:37:01.023Z,72.4
2018-02-25T06:38:00.989Z,72.11
2018-02-25T06:39:00.949Z,72.4
2018-02-25T06:40:00.905Z,72.4
2018-02-25T06:41:00.870Z,72.4
2018-02-25T06:42:00.838Z,72.3
2018-02-25T06:43:00.547Z,72.21
2018-02-25T06:44:00.756Z,72.11
2018-02-25T06:45:00.719Z,72.49
2018-02-25T06:46:00.682Z,72.3
2018-02-25T06:47:00.396Z,72.49
2018-02-25T06:48:00.603Z,72.49
2018-02-25T06:49:00.569Z,72.4
2018-02-25T06:50:00.532Z,72.4
2018-02-25T06:51:00.243Z,72.4
2018-02-25T06:52:00.453Z,72.49
2018-02-25T06:53:00.472Z,72.49
2018-02-25T06:54:00.380Z,72.58
2018-02-25T06:55:00.348Z,72.58
2018-02-25T06:56:00.316Z,72.58
2018-02-25T06:57:00.267Z,72.58
2018-02-25T06:58:00.230Z,72.4
2018-02-25T06:59:00.191Z,72.4
2018-02-25T07:00:00.157Z,72.49
2018-02-25T07:01:00.116Z,72.58
2018-02-25T07:02:00.080Z,72.58
2018-02-25T07:03:00.040Z,72.58
2018-02-25T07:04:00.002Z,72.49
2018-02-25T07:04:59.966Z,72.4
2018-02-25T07:05:59.924Z,72.4
2018-02-25T07:06:59.887Z,72.49
2018-02-25T07:07:59.972Z,72.3
2018-02-25T07:08:59.817Z,72.58
2018-02-25T07:09:59.775Z,72.11
2018-02-25T07:10:59.741Z,72.4
2018-02-25T07:11:59.703Z,71.92
2018-02-25T07:12:59.661Z,72.02
2018-02-25T07:13:59.624Z,71.83
2018-02-25T07:14:59.339Z,72.06
2018-02-25T07:15:59.581Z,72.3
2018-02-25T07:16:59.514Z,72.11
2018-02-25T07:17:59.471Z,72.21
2018-02-25T07:18:59.438Z,72.4
2018-02-25T07:19:59.399Z,72.53
2018-02-25T07:20:59.119Z,72.21
2018-02-25T07:21:59.326Z,72.21
2018-02-25T07:22:59.293Z,72.25
2018-02-25T07:23:59.007Z,72.34
2018-02-25T07:24:59.220Z,72.34
2018-02-25T07:25:59.174Z,72.34
2018-02-25T07:26:59.140Z,72.25
2018-02-25T07:27:59.100Z,72.06
2018-02-25T07:28:58.815Z,72.25
2018-02-25T07:29:59.029Z,72.15
2018-02-25T07:30:58.996Z,72.06
2018-02-25T07:31:58.959Z,71.77
2018-02-25T07:32:58.914Z,71.77
2018-02-25T07:33:58.886Z,71.87
2018-02-25T07:34:58.840Z,71.87
2018-02-25T07:35:58.805Z,71.4
2018-02-25T07:36:58.769Z,71.87
2018-02-25T07:37:58.729Z,71.58
2018-02-25T07:38:58.688Z,71.87
2018-02-25T07:39:58.654Z,71.77
2018-02-25T07:40:58.617Z,71.3
2018-02-25T07:41:58.332Z,71.02
2018-02-25T07:42:58.556Z,71.11
2018-02-25T07:43:58.505Z,71.3
2018-02-25T07:44:58.469Z,71.11
2018-02-25T07:45:58.429Z,71.21
2018-02-25T07:46:58.392Z,71.3
2018-02-25T07:47:58.362Z,71.21
2018-02-25T07:48:58.320Z,70.64
2018-02-25T07:49:58.354Z,70.73
2018-02-25T07:50:58.246Z,70.73
2018-02-25T07:51:58.213Z,70.83
2018-02-25T07:52:58.171Z,70.92
2018-02-25T07:53:58.135Z,70.45
2018-02-25T07:54:58.098Z,70.17
2018-02-25T07:55:58.085Z,70.45
2018-02-25T07:56:58.020Z,70.54
2018-02-25T07:57:57.989Z,70.26
2018-02-25T07:58:57.949Z,69.98
2018-02-25T07:59:57.919Z,69.79
2018-02-25T08:00:57.875Z,69.79
2018-02-25T08:01:57.841Z,70.17
2018-02-25T08:02:57.801Z,69.89
2018-02-25T08:03:57.761Z,70.36
2018-02-25T08:04:57.729Z,70.26
2018-02-25T08:05:57.693Z,69.79
2018-02-25T08:06:57.651Z,70.07
2018-02-25T08:07:57.619Z,69.7
2018-02-25T08:08:57.579Z,69.51
2018-02-25T08:09:57.559Z,69.51
2018-02-25T08:10:57.563Z,69.89
2018-02-25T08:11:57.478Z,69.51
2018-02-25T08:12:57.436Z,69.7
2018-02-25T08:13:57.447Z,69.42
2018-02-25T08:14:57.358Z,69.6
2018-02-25T08:15:57.333Z,69.42
2018-02-25T08:16:57.285Z,68.95
2018-02-25T08:17:57.002Z,69.23
2018-02-25T08:18:57.209Z,68.85
2018-02-25T08:19:57.173Z,68.95
2018-02-25T08:20:57.146Z,69.13
2018-02-25T08:21:57.104Z,68.85
2018-02-25T08:22:57.061Z,68.85
2018-02-25T08:23:57.028Z,68.66
2018-02-25T08:24:56.990Z,68.85
2018-02-25T08:25:56.953Z,69.13
2018-02-25T08:26:56.917Z,68.76
2018-02-25T08:27:56.633Z,69.23
2018-02-25T08:28:56.845Z,68.85
2018-02-25T08:29:56.809Z,68.47
2018-02-25T08:30:56.770Z,68.57
2018-02-25T08:31:56.739Z,68.29
2018-02-25T08:32:56.702Z,68.1
2018-02-25T08:33:56.662Z,67.72
2018-02-25T08:34:56.628Z,68.19
2018-02-25T08:35:56.342Z,67.81
2018-02-25T08:36:56.948Z,67.25
2018-02-25T08:37:56.682Z,67.72
2018-02-25T08:38:56.478Z,67.81
2018-02-25T08:39:56.441Z,67.91
2018-02-25T08:40:56.406Z,67.72
2018-02-25T08:41:56.375Z,67.53
2018-02-25T08:42:56.332Z,67.25
2018-02-25T08:43:56.299Z,67.53
2018-02-25T08:44:56.259Z,67.06
2018-02-25T08:45:56.228Z,67.62
2018-02-25T08:46:56.191Z,66.87
2018-02-25T08:47:56.150Z,67.25
2018-02-25T08:48:56.116Z,67.25
2018-02-25T08:49:56.078Z,66.49
2018-02-25T08:50:56.038Z,66.3
2018-02-25T08:51:56.004Z,66.49
2018-02-25T08:52:55.971Z,66.4
2018-02-25T08:53:55.931Z,66.43
2018-02-25T08:54:55.896Z,66.49
2018-02-25T08:55:55.861Z,66.15
2018-02-25T08:56:55.827Z,65.86
2018-02-25T08:57:55.540Z,66.15
2018-02-25T08:58:55.750Z,65.86
2018-02-25T08:59:55.714Z,66.15
2018-02-25T09:00:55.676Z,66.15
2018-02-25T09:01:55.643Z,65.48
2018-02-25T09:02:55.608Z,65.39
2018-02-25T09:03:55.571Z,65.67
2018-02-25T09:04:55.541Z,65.2
2018-02-25T09:05:55.500Z,64.73
2018-02-25T09:06:55.463Z,64.45
2018-02-25T09:07:55.433Z,64.73
2018-02-25T09:08:55.392Z,64.73
2018-02-25T09:09:55.351Z,64.54
2018-02-25T09:10:55.316Z,64.26
2018-02-25T09:11:55.357Z,64.36
2018-02-25T09:12:55.253Z,63.89
2018-02-25T09:13:55.210Z,64.26
2018-02-25T09:14:55.176Z,63.79
2018-02-25T09:15:55.139Z,63.41
2018-02-25T09:16:55.102Z,62.94
2018-02-25T09:17:55.064Z,62.84
2018-02-25T09:18:55.035Z,63.03
2018-02-25T09:19:54.996Z,62.56
2018-02-25T09:20:54.711Z,62.09
2018-02-25T09:21:54.924Z,61.9
2018-02-25T09:22:54.639Z,62.09
2018-02-25T09:23:54.859Z,61.43
2018-02-25T09:24:54.815Z,61.24
2018-02-25T09:25:54.531Z,61.61
2018-02-25T09:26:54.749Z,61.52
2018-02-25T09:27:54.710Z,61.43
2018-02-25T09:28:54.673Z,61.33
2018-02-25T09:29:54.661Z,60.77
2018-02-25T09:30:54.611Z,60.68
2018-02-25T09:31:54.567Z,60.02
2018-02-25T09:32:54.535Z,59.92
2018-02-25T09:33:54.500Z,60.21
2018-02-25T09:34:54.505Z,59.92
2018-02-25T09:35:54.440Z,60.3
2018-02-25T09:36:54.391Z,60.02
2018-02-25T09:37:54.358Z,59.73
2018-02-25T09:38:54.321Z,59.45
2018-02-25T09:39:54.293Z,59.17
2018-02-25T09:40:54.252Z,59.35
2018-02-25T09:41:54.218Z,59.73
2018-02-25T09:42:54.182Z,59.64
2018-02-25T09:43:54.146Z,59.17
2018-02-25T09:44:54.108Z,59.26
2018-02-25T09:45:54.076Z,59.07
2018-02-25T09:46:54.037Z,59.26
2018-02-25T09:47:54.016Z,59.26
2018-02-25T09:48:53.967Z,59.35
2018-02-25T09:49:53.934Z,58.79
2018-02-25T09:50:53.652Z,59.45
2018-02-25T09:51:53.870Z,59.35
2018-02-25T09:52:53.832Z,58.79
2018-02-25T09:53:53.806Z,58.5
2018-02-25T09:54:53.758Z,58.6
2018-02-25T09:55:53.723Z,58.31
2018-02-25T09:56:53.692Z,58.22
2018-02-25T09:57:53.653Z,57.94
2018-02-25T09:58:53.622Z,57.94
2018-02-25T09:59:53.580Z,57.84
2018-02-25T10:00:53.551Z,57.84
2018-02-25T10:01:53.511Z,57.75
2018-02-25T10:02:53.477Z,57.37
2018-02-25T10:03:53.440Z,57.37
2018-02-25T10:04:53.406Z,57.28
2018-02-25T10:05:53.366Z,57.28
2018-02-25T10:06:53.336Z,57.12
2018-02-25T10:07:53.302Z,57.18
2018-02-25T10:08:53.268Z,56.71
2018-02-25T10:09:53.643Z,56.93
2018-02-25T10:10:52.958Z,56.46
2018-02-25T10:11:53.160Z,56.52
2018-02-25T10:12:53.126Z,56.34
2018-02-25T10:13:53.087Z,56.34
2018-02-25T10:14:53.054Z,56.43
2018-02-25T10:15:53.015Z,56.43
2018-02-25T10:16:52.984Z,56.27
2018-02-25T10:17:52.697Z,56.17
2018-02-25T10:18:52.912Z,56.08
2018-02-25T10:19:52.878Z,55.58
2018-02-25T10:20:52.841Z,55.58
2018-02-25T10:21:52.803Z,55.61
2018-02-25T10:22:52.772Z,55.23
2018-02-25T10:23:52.737Z,55.23
2018-02-25T10:24:52.451Z,54.85
2018-02-25T10:25:52.664Z,54.75
2018-02-25T10:26:52.627Z,54.57
2018-02-25T10:27:52.592Z,55.13
2018-02-25T10:28:52.560Z,54.57
2018-02-25T10:29:52.527Z,54.66
2018-02-25T10:30:52.488Z,54.57
2018-02-25T10:31:52.454Z,54.85
2018-02-25T10:32:52.418Z,54.38
2018-02-25T10:33:52.385Z,54
2018-02-25T10:34:52.102Z,53.72
2018-02-25T10:35:52.319Z,54.1
2018-02-25T10:36:52.280Z,53.63
2018-02-25T10:37:52.246Z,52.87
2018-02-25T10:38:52.215Z,53.34
2018-02-25T10:39:52.179Z,53.25
2018-02-25T10:40:52.138Z,53.25
2018-02-25T10:41:52.104Z,53.06
2018-02-25T10:42:52.071Z,53.34
2018-02-25T10:43:52.036Z,52.96
2018-02-25T10:44:51.752Z,52.87
2018-02-25T10:45:51.965Z,52.68
2018-02-25T10:46:51.934Z,52.87
2018-02-25T10:47:51.898Z,52.11
2018-02-25T10:48:51.860Z,52.21
2018-02-25T10:49:51.827Z,52.78
2018-02-25T10:50:51.543Z,51.83
2018-02-25T10:51:51.761Z,51.83
2018-02-25T10:52:51.723Z,51.64
2018-02-25T10:53:51.689Z,51.26
2018-02-25T10:54:51.652Z,51.36
2018-02-25T10:55:51.616Z,50.89
2018-02-25T10:56:51.579Z,50.79
2018-02-25T10:57:51.553Z,50.7
2018-02-25T10:58:51.511Z,50.51
2018-02-25T10:59:51.229Z,50.7
2018-02-25T11:00:51.450Z,50.79
2018-02-25T11:01:51.406Z,50.32
2018-02-25T11:02:51.372Z,50.23
2018-02-25T11:03:51.337Z,50.51
2018-02-25T11:04:51.309Z,50.7
2018-02-25T11:05:51.271Z,50.42
2018-02-25T11:06:51.235Z,49.85
2018-02-25T11:07:51.200Z,49.76
2018-02-25T11:08:51.165Z,50.32
2018-02-25T11:09:50.882Z,49.76
2018-02-25T11:10:51.097Z,49.28
2018-02-25T11:11:51.064Z,49.09
2018-02-25T11:12:51.027Z,49.47
2018-02-25T11:13:50.995Z,49.09
2018-02-25T11:14:50.956Z,49.09
2018-02-25T11:15:50.924Z,49.19
2018-02-25T11:16:50.898Z,48.24
2018-02-25T11:17:50.605Z,48.71
2018-02-25T11:18:50.573Z,48.71
2018-02-25T11:19:50.786Z,48.71
2018-02-25T11:20:50.870Z,48.9
2018-02-25T11:21:50.466Z,48.18
2018-02-25T11:22:50.434Z,48.24
2018-02-25T11:23:50.398Z,47.96
2018-02-25T11:24:50.613Z,48.18
2018-02-25T11:25:50.586Z,48.18
2018-02-25T11:26:50.547Z,47.89
2018-02-25T11:27:50.262Z,47.7
2018-02-25T11:28:50.474Z,47.04
2018-02-25T11:29:50.442Z,46.66
2018-02-25T11:30:50.415Z,46.28
2018-02-25T11:31:51.027Z,46.56
2018-02-25T11:32:50.403Z,46.56
2018-02-25T11:33:50.320Z,46.19
2018-02-25T11:34:50.277Z,46.28
2018-02-25T11:35:50.005Z,46.19
2018-02-25T11:36:50.771Z,45.9
2018-02-25T11:37:50.169Z,46.19
2018-02-25T11:38:50.134Z,45.62
2018-02-25T11:39:50.102Z,45.53
2018-02-25T11:40:50.073Z,45.53
2018-02-25T11:41:50.036Z,45.34
2018-02-25T11:42:49.997Z,45.62
2018-02-25T11:43:49.966Z,45.43
2018-02-25T11:44:49.932Z,44.96
2018-02-25T11:45:50.535Z,44.68
2018-02-25T11:46:49.863Z,44.39
2018-02-25T11:47:49.825Z,44.02
2018-02-25T11:48:49.547Z,44.02
2018-02-25T11:49:49.512Z,43.54
2018-02-25T11:50:49.727Z,42.97
2018-02-25T11:51:49.698Z,42.79
2018-02-25T11:52:51.373Z,42.79
2018-02-25T11:53:49.627Z,42.79
2018-02-25T11:54:49.588Z,42.5
2018-02-25T11:55:49.558Z,42.6
2018-02-25T11:56:49.527Z,42.79
2018-02-25T11:57:49.488Z,42.79
2018-02-25T11:58:49.453Z,42.79
2018-02-25T11:59:49.172Z,42.79
2018-02-25T12:00:49.387Z,42.69
2018-02-25T12:01:49.352Z,42.88
2018-02-25T12:02:49.317Z,42.5
2018-02-25T12:03:49.284Z,42.5
2018-02-25T12:04:49.249Z,42.13
2018-02-25T12:05:49.217Z,41.66
2018-02-25T12:06:49.183Z,41.28
2018-02-25T12:07:50.034Z,41.18
2018-02-25T12:08:49.111Z,41.09
2018-02-25T12:09:49.725Z,41.28
2018-02-25T12:10:49.045Z,41.09
2018-02-25T12:11:49.014Z,41.09
2018-02-25T12:12:48.733Z,41.37
2018-02-25T12:13:48.946Z,41.28
2018-02-25T12:14:48.914Z,41.47
2018-02-25T12:15:48.878Z,41.28
2018-02-25T12:16:48.844Z,40.8
2018-02-25T12:17:48.810Z,41.09
2018-02-25T12:18:48.780Z,41.18
2018-02-25T12:19:48.941Z,40.71
2018-02-25T12:20:48.711Z,40.8
2018-02-25T12:21:48.678Z,40.71
2018-02-25T12:22:48.394Z,40.8
2018-02-25T12:23:48.612Z,40.99
2018-02-25T12:24:48.583Z,40.14
2018-02-25T12:25:48.546Z,40.05
2018-02-25T12:26:48.506Z,39.67
2018-02-25T12:27:48.472Z,40.05
2018-02-25T12:28:48.440Z,39.48
2018-02-25T12:29:48.409Z,39.39
2018-02-25T12:30:48.375Z,39.39
2018-02-25T12:31:48.341Z,40.05
2018-02-25T12:32:48.059Z,39.86
2018-02-25T12:33:48.274Z,39.78
2018-02-25T12:34:48.245Z,39.78
2018-02-25T12:35:48.204Z,39.88
2018-02-25T12:36:48.172Z,39.88
2018-02-25T12:37:48.137Z,40.07
2018-02-25T12:38:47.857Z,39.4
2018-02-25T12:39:47.823Z,39.4
2018-02-25T12:40:47.791Z,39.5
2018-02-25T12:41:48.006Z,40.07
2018-02-25T12:42:47.969Z,39.97
2018-02-25T12:43:47.690Z,40.07
2018-02-25T12:44:47.656Z,39.4
2018-02-25T12:45:47.869Z,39.31
2018-02-25T12:46:47.839Z,39.69
2018-02-25T12:47:47.557Z,39.22
2018-02-25T12:48:47.772Z,38.75
2018-02-25T12:49:47.739Z,38.65
2018-02-25T12:50:47.706Z,38.75
2018-02-25T12:51:47.674Z,38.56
2018-02-25T12:52:47.640Z,38.56
2018-02-25T12:53:47.606Z,38.75
2018-02-25T12:54:47.571Z,39.03